sensor_id;sensor_type;location;lat;lon;timestamp;temperature;humidity
40808;DHT22;26523;52.504;13.498;2023-07-24T00:01:52;18.90;99.90
40808;DHT22;26523;52.504;13.498;2023-07-24T00:04:18;18.90;99.90
40808;DHT22;26523;52.504;13.498;2023-07-24T00:06:43;18.80;99.90
40808;DHT22;26523;52.504;13.498;2023-07-24T00:09:09;18.90;99.90
40808;DHT22;26523;52.504;13.498;2023-07-24T00:11:34;18.90;99.90
40808;DHT22;26523;52.504;13.498;2023-07-24T00:14:00;19.00;99.90
40808;DHT22;26523;52.504;13.498;2023-07-24T00:16:26;19.00;99.90
40808;DHT22;26523;52.504;13.498;2023-07-24T00:18:51;19.00;99.90
40808;DHT22;26523;52.504;13.498;2023-07-24T00:21:17;19.10;99.90
40808;DHT22;26523;52.504;13.498;2023-07-24T00:23:43;19.10;99.90
40808;DHT22;26523;52.504;13.498;2023-07-24T00:26:08;19.10;99.90
40808;DHT22;26523;52.504;13.498;2023-07-24T00:28:34;19.10;99.90
40808;DHT22;26523;52.504;13.498;2023-07-24T00:30:59;19.10;99.90
40808;DHT22;26523;52.504;13.498;2023-07-24T00:33:25;19.10;99.90
40808;DHT22;26523;52.504;13.498;2023-07-24T00:35:54;19.10;99.90
40808;DHT22;26523;52.504;13.498;2023-07-24T00:38:20;19.20;99.90
40808;DHT22;26523;52.504;13.498;2023-07-24T00:40:45;19.20;99.90
40808;DHT22;26523;52.504;13.498;2023-07-24T00:43:11;19.20;99.90
40808;DHT22;26523;52.504;13.498;2023-07-24T00:45:37;19.10;99.90
40808;DHT22;26523;52.504;13.498;2023-07-24T00:48:02;19.10;99.90
40808;DHT22;26523;52.504;13.498;2023-07-24T00:50:29;19.10;99.90
40808;DHT22;26523;52.504;13.498;2023-07-24T00:52:55;19.10;99.90
40808;DHT22;26523;52.504;13.498;2023-07-24T00:55:21;19.10;99.90
40808;DHT22;26523;52.504;13.498;2023-07-24T00:57:47;19.10;99.90
40808;DHT22;26523;52.504;13.498;2023-07-24T01:00:13;19.00;99.90
40808;DHT22;26523;52.504;13.498;2023-07-24T01:02:39;19.00;99.90
40808;DHT22;26523;52.504;13.498;2023-07-24T01:05:05;19.00;99.90
40808;DHT22;26523;52.504;13.498;2023-07-24T01:07:31;18.90;99.90
40808;DHT22;26523;52.504;13.498;2023-07-24T01:09:57;18.90;99.90
40808;DHT22;26523;52.504;13.498;2023-07-24T01:15:06;18.90;99.90
40808;DHT22;26523;52.504;13.498;2023-07-24T01:17:38;18.80;99.90
40808;DHT22;26523;52.504;13.498;2023-07-24T01:20:07;18.80;99.90
40808;DHT22;26523;52.504;13.498;2023-07-24T01:22:39;18.70;99.90
40808;DHT22;26523;52.504;13.498;2023-07-24T01:25:28;18.70;99.90
40808;DHT22;26523;52.504;13.498;2023-07-24T01:27:57;18.60;99.90
40808;DHT22;26523;52.504;13.498;2023-07-24T01:30:22;18.60;99.90
40808;DHT22;26523;52.504;13.498;2023-07-24T01:32:48;18.60;99.90
40808;DHT22;26523;52.504;13.498;2023-07-24T01:35:14;18.50;99.90
40808;DHT22;26523;52.504;13.498;2023-07-24T01:37:41;18.50;99.90
40808;DHT22;26523;52.504;13.498;2023-07-24T01:40:09;18.60;99.90
40808;DHT22;26523;52.504;13.498;2023-07-24T01:42:35;18.60;99.90
40808;DHT22;26523;52.504;13.498;2023-07-24T01:45:03;18.70;99.90
40808;DHT22;26523;52.504;13.498;2023-07-24T01:47:29;18.70;99.90
40808;DHT22;26523;52.504;13.498;2023-07-24T01:49:55;18.80;99.90
40808;DHT22;26523;52.504;13.498;2023-07-24T01:52:21;18.70;99.90
40808;DHT22;26523;52.504;13.498;2023-07-24T01:54:47;18.70;99.90
40808;DHT22;26523;52.504;13.498;2023-07-24T01:57:12;18.70;99.90
40808;DHT22;26523;52.504;13.498;2023-07-24T01:59:38;18.80;99.90
40808;DHT22;26523;52.504;13.498;2023-07-24T02:02:04;18.80;99.90
40808;DHT22;26523;52.504;13.498;2023-07-24T02:04:29;18.80;99.90
40808;DHT22;26523;52.504;13.498;2023-07-24T02:06:55;18.80;99.90
40808;DHT22;26523;52.504;13.498;2023-07-24T02:09:21;18.80;99.90
40808;DHT22;26523;52.504;13.498;2023-07-24T02:11:46;18.80;99.90
40808;DHT22;26523;52.504;13.498;2023-07-24T02:14:13;18.80;99.90
40808;DHT22;26523;52.504;13.498;2023-07-24T02:16:39;18.90;99.90
40808;DHT22;26523;52.504;13.498;2023-07-24T02:19:05;18.90;99.90
40808;DHT22;26523;52.504;13.498;2023-07-24T02:21:31;18.80;99.90
40808;DHT22;26523;52.504;13.498;2023-07-24T02:23:57;18.90;99.90
40808;DHT22;26523;52.504;13.498;2023-07-24T02:26:23;18.90;99.90
40808;DHT22;26523;52.504;13.498;2023-07-24T02:28:48;18.90;99.90
40808;DHT22;26523;52.504;13.498;2023-07-24T02:31:14;18.90;99.90
40808;DHT22;26523;52.504;13.498;2023-07-24T02:33:39;18.90;99.90
40808;DHT22;26523;52.504;13.498;2023-07-24T02:36:05;19.00;99.90
40808;DHT22;26523;52.504;13.498;2023-07-24T02:38:31;19.00;99.90
40808;DHT22;26523;52.504;13.498;2023-07-24T02:40:57;19.00;99.90
40808;DHT22;26523;52.504;13.498;2023-07-24T02:43:23;19.00;99.90
40808;DHT22;26523;52.504;13.498;2023-07-24T02:45:48;19.00;99.90
40808;DHT22;26523;52.504;13.498;2023-07-24T02:48:14;19.10;99.90
40808;DHT22;26523;52.504;13.498;2023-07-24T02:50:40;19.10;99.90
40808;DHT22;26523;52.504;13.498;2023-07-24T02:53:05;19.10;99.90
40808;DHT22;26523;52.504;13.498;2023-07-24T02:55:31;19.10;99.90
40808;DHT22;26523;52.504;13.498;2023-07-24T02:57:57;19.10;99.90
40808;DHT22;26523;52.504;13.498;2023-07-24T03:00:22;19.10;99.90
40808;DHT22;26523;52.504;13.498;2023-07-24T03:02:48;19.10;99.90
40808;DHT22;26523;52.504;13.498;2023-07-24T03:05:14;19.10;99.90
40808;DHT22;26523;52.504;13.498;2023-07-24T03:07:39;19.20;99.90
40808;DHT22;26523;52.504;13.498;2023-07-24T03:10:05;19.20;99.90
40808;DHT22;26523;52.504;13.498;2023-07-24T03:12:31;19.20;99.90
40808;DHT22;26523;52.504;13.498;2023-07-24T03:14:57;19.20;99.90
40808;DHT22;26523;52.504;13.498;2023-07-24T03:17:22;19.20;99.90
40808;DHT22;26523;52.504;13.498;2023-07-24T03:19:48;19.20;99.90
40808;DHT22;26523;52.504;13.498;2023-07-24T03:22:14;19.20;99.90
40808;DHT22;26523;52.504;13.498;2023-07-24T03:24:40;19.20;99.90
40808;DHT22;26523;52.504;13.498;2023-07-24T03:27:06;19.20;99.90
40808;DHT22;26523;52.504;13.498;2023-07-24T03:29:31;19.20;99.90
40808;DHT22;26523;52.504;13.498;2023-07-24T03:31:57;19.20;99.90
40808;DHT22;26523;52.504;13.498;2023-07-24T03:34:23;19.20;99.90
40808;DHT22;26523;52.504;13.498;2023-07-24T03:36:48;19.20;99.90
40808;DHT22;26523;52.504;13.498;2023-07-24T03:39:14;19.20;99.90
40808;DHT22;26523;52.504;13.498;2023-07-24T03:41:41;19.30;99.90
40808;DHT22;26523;52.504;13.498;2023-07-24T03:44:07;19.30;99.90
40808;DHT22;26523;52.504;13.498;2023-07-24T03:46:33;19.30;99.90
40808;DHT22;26523;52.504;13.498;2023-07-24T03:48:59;19.30;99.90
40808;DHT22;26523;52.504;13.498;2023-07-24T03:51:24;19.40;99.90
40808;DHT22;26523;52.504;13.498;2023-07-24T03:53:50;19.40;99.90
40808;DHT22;26523;52.504;13.498;2023-07-24T03:56:16;19.40;99.90
40808;DHT22;26523;52.504;13.498;2023-07-24T03:58:41;19.40;99.90
40808;DHT22;26523;52.504;13.498;2023-07-24T04:01:08;19.40;99.90
40808;DHT22;26523;52.504;13.498;2023-07-24T04:03:34;19.40;99.90
40808;DHT22;26523;52.504;13.498;2023-07-24T04:06:00;19.50;99.90
40808;DHT22;26523;52.504;13.498;2023-07-24T04:08:25;19.50;99.90
40808;DHT22;26523;52.504;13.498;2023-07-24T04:10:51;19.50;99.90
40808;DHT22;26523;52.504;13.498;2023-07-24T04:13:17;19.40;99.90
40808;DHT22;26523;52.504;13.498;2023-07-24T04:15:43;19.40;99.90
40808;DHT22;26523;52.504;13.498;2023-07-24T04:18:10;19.30;99.90
40808;DHT22;26523;52.504;13.498;2023-07-24T04:20:35;19.20;99.90
40808;DHT22;26523;52.504;13.498;2023-07-24T04:23:01;19.30;99.90
40808;DHT22;26523;52.504;13.498;2023-07-24T04:25:26;19.20;99.90
40808;DHT22;26523;52.504;13.498;2023-07-24T04:27:52;19.30;99.90
40808;DHT22;26523;52.504;13.498;2023-07-24T04:30:18;19.40;99.90
40808;DHT22;26523;52.504;13.498;2023-07-24T04:32:43;19.40;99.90
40808;DHT22;26523;52.504;13.498;2023-07-24T04:35:09;19.60;99.90
40808;DHT22;26523;52.504;13.498;2023-07-24T04:37:35;19.70;99.90
40808;DHT22;26523;52.504;13.498;2023-07-24T04:40:00;19.80;99.90
40808;DHT22;26523;52.504;13.498;2023-07-24T04:42:26;19.80;99.90
40808;DHT22;26523;52.504;13.498;2023-07-24T04:44:51;19.80;99.90
40808;DHT22;26523;52.504;13.498;2023-07-24T04:47:17;19.80;99.90
40808;DHT22;26523;52.504;13.498;2023-07-24T04:49:43;19.80;99.90
40808;DHT22;26523;52.504;13.498;2023-07-24T04:52:08;19.80;99.90
40808;DHT22;26523;52.504;13.498;2023-07-24T04:54:34;19.80;99.90
40808;DHT22;26523;52.504;13.498;2023-07-24T04:57:00;19.80;99.90
40808;DHT22;26523;52.504;13.498;2023-07-24T04:59:25;20.00;99.90
40808;DHT22;26523;52.504;13.498;2023-07-24T05:01:51;20.10;99.90
40808;DHT22;26523;52.504;13.498;2023-07-24T05:04:17;20.20;99.90
40808;DHT22;26523;52.504;13.498;2023-07-24T05:06:42;20.30;99.90
40808;DHT22;26523;52.504;13.498;2023-07-24T05:09:08;20.50;99.90
40808;DHT22;26523;52.504;13.498;2023-07-24T05:11:34;20.60;99.90
40808;DHT22;26523;52.504;13.498;2023-07-24T05:13:59;20.60;99.90
40808;DHT22;26523;52.504;13.498;2023-07-24T05:16:25;20.80;99.90
40808;DHT22;26523;52.504;13.498;2023-07-24T05:18:51;20.80;99.90
40808;DHT22;26523;52.504;13.498;2023-07-24T05:21:16;21.00;99.90
40808;DHT22;26523;52.504;13.498;2023-07-24T05:23:42;21.00;99.90
40808;DHT22;26523;52.504;13.498;2023-07-24T05:26:07;21.10;99.90
40808;DHT22;26523;52.504;13.498;2023-07-24T05:28:33;21.50;99.90
40808;DHT22;26523;52.504;13.498;2023-07-24T05:31:03;21.90;99.90
40808;DHT22;26523;52.504;13.498;2023-07-24T05:33:30;22.40;99.90
40808;DHT22;26523;52.504;13.498;2023-07-24T05:36:03;22.70;99.90
40808;DHT22;26523;52.504;13.498;2023-07-24T05:38:29;23.00;99.90
40808;DHT22;26523;52.504;13.498;2023-07-24T05:40:59;23.20;99.90
40808;DHT22;26523;52.504;13.498;2023-07-24T05:43:26;23.30;99.90
40808;DHT22;26523;52.504;13.498;2023-07-24T05:45:52;23.50;99.90
40808;DHT22;26523;52.504;13.498;2023-07-24T05:48:18;23.70;99.90
40808;DHT22;26523;52.504;13.498;2023-07-24T05:50:44;24.00;99.90
40808;DHT22;26523;52.504;13.498;2023-07-24T05:53:10;25.80;99.90
40808;DHT22;26523;52.504;13.498;2023-07-24T05:55:35;27.90;99.90
40808;DHT22;26523;52.504;13.498;2023-07-24T05:58:01;29.40;98.10
40808;DHT22;26523;52.504;13.498;2023-07-24T06:00:27;30.40;95.50
40808;DHT22;26523;52.504;13.498;2023-07-24T06:02:53;31.80;93.40
40808;DHT22;26523;52.504;13.498;2023-07-24T06:05:19;32.50;91.10
40808;DHT22;26523;52.504;13.498;2023-07-24T06:07:48;33.60;89.10
40808;DHT22;26523;52.504;13.498;2023-07-24T06:10:14;34.60;85.40
40808;DHT22;26523;52.504;13.498;2023-07-24T06:12:40;35.60;80.90
40808;DHT22;26523;52.504;13.498;2023-07-24T06:15:06;36.30;78.10
40808;DHT22;26523;52.504;13.498;2023-07-24T06:17:32;37.30;75.90
40808;DHT22;26523;52.504;13.498;2023-07-24T06:19:58;37.90;72.70
40808;DHT22;26523;52.504;13.498;2023-07-24T06:22:24;38.10;71.00
40808;DHT22;26523;52.504;13.498;2023-07-24T06:24:50;38.70;69.70
40808;DHT22;26523;52.504;13.498;2023-07-24T06:27:16;39.30;67.50
40808;DHT22;26523;52.504;13.498;2023-07-24T06:29:41;39.10;67.00
40808;DHT22;26523;52.504;13.498;2023-07-24T06:32:07;39.60;66.10
40808;DHT22;26523;52.504;13.498;2023-07-24T06:34:34;40.20;64.20
40808;DHT22;26523;52.504;13.498;2023-07-24T06:37:00;39.90;63.70
40808;DHT22;26523;52.504;13.498;2023-07-24T06:39:26;40.10;63.40
40808;DHT22;26523;52.504;13.498;2023-07-24T06:41:54;40.40;63.00
40808;DHT22;26523;52.504;13.498;2023-07-24T06:44:20;40.50;61.80
40808;DHT22;26523;52.504;13.498;2023-07-24T06:46:45;40.80;61.80
40808;DHT22;26523;52.504;13.498;2023-07-24T06:49:11;41.30;60.70
40808;DHT22;26523;52.504;13.498;2023-07-24T06:51:37;41.50;60.90
40808;DHT22;26523;52.504;13.498;2023-07-24T06:54:04;42.00;59.40
40808;DHT22;26523;52.504;13.498;2023-07-24T06:56:31;42.00;58.90
40808;DHT22;26523;52.504;13.498;2023-07-24T06:58:56;42.30;58.10
40808;DHT22;26523;52.504;13.498;2023-07-24T07:01:22;42.60;57.90
40808;DHT22;26523;52.504;13.498;2023-07-24T07:03:47;42.70;57.20
40808;DHT22;26523;52.504;13.498;2023-07-24T07:06:15;42.90;56.90
40808;DHT22;26523;52.504;13.498;2023-07-24T07:08:41;43.30;56.70
40808;DHT22;26523;52.504;13.498;2023-07-24T07:11:07;43.40;56.10
40808;DHT22;26523;52.504;13.498;2023-07-24T07:13:32;43.40;55.80
40808;DHT22;26523;52.504;13.498;2023-07-24T07:15:58;43.30;56.20
40808;DHT22;26523;52.504;13.498;2023-07-24T07:18:24;43.30;55.50
40808;DHT22;26523;52.504;13.498;2023-07-24T07:20:51;43.20;55.60
40808;DHT22;26523;52.504;13.498;2023-07-24T07:23:17;42.70;55.60
40808;DHT22;26523;52.504;13.498;2023-07-24T07:25:43;42.60;55.70
40808;DHT22;26523;52.504;13.498;2023-07-24T07:28:16;42.60;55.50
40808;DHT22;26523;52.504;13.498;2023-07-24T07:30:42;42.60;55.50
40808;DHT22;26523;52.504;13.498;2023-07-24T07:33:08;43.40;54.60
40808;DHT22;26523;52.504;13.498;2023-07-24T07:35:34;43.10;54.60
40808;DHT22;26523;52.504;13.498;2023-07-24T07:38:01;43.10;54.10
40808;DHT22;26523;52.504;13.498;2023-07-24T07:40:27;42.90;54.60
40808;DHT22;26523;52.504;13.498;2023-07-24T07:42:53;42.50;54.60
40808;DHT22;26523;52.504;13.498;2023-07-24T07:45:19;41.90;55.30
40808;DHT22;26523;52.504;13.498;2023-07-24T07:47:45;42.10;54.90
40808;DHT22;26523;52.504;13.498;2023-07-24T07:50:11;42.60;54.10
40808;DHT22;26523;52.504;13.498;2023-07-24T07:52:37;42.30;54.30
40808;DHT22;26523;52.504;13.498;2023-07-24T07:55:03;42.20;54.40
40808;DHT22;26523;52.504;13.498;2023-07-24T07:57:28;41.80;54.70
40808;DHT22;26523;52.504;13.498;2023-07-24T07:59:54;42.30;54.50
40808;DHT22;26523;52.504;13.498;2023-07-24T08:02:19;42.10;54.70
40808;DHT22;26523;52.504;13.498;2023-07-24T08:04:45;42.10;54.50
40808;DHT22;26523;52.504;13.498;2023-07-24T08:07:11;41.10;55.00
40808;DHT22;26523;52.504;13.498;2023-07-24T08:09:36;41.20;55.40
40808;DHT22;26523;52.504;13.498;2023-07-24T08:12:04;40.40;55.50
40808;DHT22;26523;52.504;13.498;2023-07-24T08:14:30;39.60;56.30
40808;DHT22;26523;52.504;13.498;2023-07-24T08:16:56;38.70;57.10
40808;DHT22;26523;52.504;13.498;2023-07-24T08:19:21;37.50;58.60
40808;DHT22;26523;52.504;13.498;2023-07-24T08:21:47;37.20;59.00
40808;DHT22;26523;52.504;13.498;2023-07-24T08:24:13;37.70;59.00
40808;DHT22;26523;52.504;13.498;2023-07-24T08:26:38;37.10;58.90
40808;DHT22;26523;52.504;13.498;2023-07-24T08:29:05;35.70;60.80
40808;DHT22;26523;52.504;13.498;2023-07-24T08:31:30;35.20;61.80
40808;DHT22;26523;52.504;13.498;2023-07-24T08:33:56;35.30;61.60
40808;DHT22;26523;52.504;13.498;2023-07-24T08:36:22;34.90;62.10
40808;DHT22;26523;52.504;13.498;2023-07-24T08:38:47;34.30;63.00
40808;DHT22;26523;52.504;13.498;2023-07-24T08:41:14;33.50;63.90
40808;DHT22;26523;52.504;13.498;2023-07-24T08:43:41;33.10;65.10
40808;DHT22;26523;52.504;13.498;2023-07-24T08:46:08;32.80;66.00
40808;DHT22;26523;52.504;13.498;2023-07-24T08:48:36;32.10;67.00
40808;DHT22;26523;52.504;13.498;2023-07-24T08:51:06;31.80;67.10
40808;DHT22;26523;52.504;13.498;2023-07-24T08:53:42;31.20;68.20
40808;DHT22;26523;52.504;13.498;2023-07-24T08:56:10;30.50;69.80
40808;DHT22;26523;52.504;13.498;2023-07-24T08:58:36;30.10;70.50
40808;DHT22;26523;52.504;13.498;2023-07-24T09:01:03;30.20;71.20
40808;DHT22;26523;52.504;13.498;2023-07-24T09:03:30;30.50;71.40
40808;DHT22;26523;52.504;13.498;2023-07-24T09:05:57;30.50;70.70
40808;DHT22;26523;52.504;13.498;2023-07-24T09:08:32;30.40;70.90
40808;DHT22;26523;52.504;13.498;2023-07-24T09:10:59;30.40;71.30
40808;DHT22;26523;52.504;13.498;2023-07-24T09:13:25;30.50;70.80
40808;DHT22;26523;52.504;13.498;2023-07-24T09:15:51;30.50;71.50
40808;DHT22;26523;52.504;13.498;2023-07-24T09:18:17;30.80;71.30
40808;DHT22;26523;52.504;13.498;2023-07-24T09:20:44;31.00;70.80
40808;DHT22;26523;52.504;13.498;2023-07-24T09:23:12;31.00;70.80
40808;DHT22;26523;52.504;13.498;2023-07-24T09:25:42;30.90;70.30
40808;DHT22;26523;52.504;13.498;2023-07-24T09:28:16;30.70;70.80
40808;DHT22;26523;52.504;13.498;2023-07-24T09:30:42;30.70;70.50
40808;DHT22;26523;52.504;13.498;2023-07-24T09:33:16;30.60;71.00
40808;DHT22;26523;52.504;13.498;2023-07-24T09:35:42;30.50;70.80
40808;DHT22;26523;52.504;13.498;2023-07-24T09:38:09;30.10;71.40
40808;DHT22;26523;52.504;13.498;2023-07-24T09:40:43;29.90;72.00
40808;DHT22;26523;52.504;13.498;2023-07-24T09:43:17;30.10;72.30
40808;DHT22;26523;52.504;13.498;2023-07-24T09:45:43;30.00;71.10
40808;DHT22;26523;52.504;13.498;2023-07-24T09:48:12;29.80;71.50
40808;DHT22;26523;52.504;13.498;2023-07-24T09:50:45;29.90;72.50
40808;DHT22;26523;52.504;13.498;2023-07-24T09:56:08;30.40;71.50
40808;DHT22;26523;52.504;13.498;2023-07-24T09:58:37;30.50;71.10
40808;DHT22;26523;52.504;13.498;2023-07-24T10:01:04;30.30;71.20
40808;DHT22;26523;52.504;13.498;2023-07-24T10:03:35;30.30;71.50
40808;DHT22;26523;52.504;13.498;2023-07-24T10:06:01;30.10;71.20
40808;DHT22;26523;52.504;13.498;2023-07-24T10:08:27;29.80;71.30
40808;DHT22;26523;52.504;13.498;2023-07-24T10:10:53;29.60;71.90
40808;DHT22;26523;52.504;13.498;2023-07-24T10:13:21;29.60;72.50
40808;DHT22;26523;52.504;13.498;2023-07-24T10:15:48;29.70;73.60
40808;DHT22;26523;52.504;13.498;2023-07-24T10:18:16;29.70;73.00
40808;DHT22;26523;52.504;13.498;2023-07-24T10:20:43;29.60;72.20
40808;DHT22;26523;52.504;13.498;2023-07-24T10:23:10;29.60;73.00
40808;DHT22;26523;52.504;13.498;2023-07-24T10:25:38;29.20;72.20
40808;DHT22;26523;52.504;13.498;2023-07-24T10:28:08;29.00;72.40
40808;DHT22;26523;52.504;13.498;2023-07-24T10:30:37;28.80;72.60
40808;DHT22;26523;52.504;13.498;2023-07-24T10:38:08;29.30;72.60
40808;DHT22;26523;52.504;13.498;2023-07-24T10:40:33;29.40;72.40
40808;DHT22;26523;52.504;13.498;2023-07-24T10:43:10;29.40;72.20
40808;DHT22;26523;52.504;13.498;2023-07-24T10:45:47;29.50;72.40
40808;DHT22;26523;52.504;13.498;2023-07-24T10:48:17;29.50;72.60
40808;DHT22;26523;52.504;13.498;2023-07-24T10:50:44;29.30;72.40
40808;DHT22;26523;52.504;13.498;2023-07-24T10:53:19;29.40;72.90
40808;DHT22;26523;52.504;13.498;2023-07-24T10:55:46;29.20;71.70
40808;DHT22;26523;52.504;13.498;2023-07-24T10:58:16;29.20;71.10
40808;DHT22;26523;52.504;13.498;2023-07-24T11:00:43;29.20;70.90
40808;DHT22;26523;52.504;13.498;2023-07-24T11:03:10;29.20;71.20
40808;DHT22;26523;52.504;13.498;2023-07-24T11:05:39;29.20;71.10
40808;DHT22;26523;52.504;13.498;2023-07-24T11:08:24;29.20;71.10
40808;DHT22;26523;52.504;13.498;2023-07-24T11:10:54;29.30;71.20
40808;DHT22;26523;52.504;13.498;2023-07-24T11:13:23;29.20;71.20
40808;DHT22;26523;52.504;13.498;2023-07-24T11:15:49;29.30;70.80
40808;DHT22;26523;52.504;13.498;2023-07-24T11:18:16;29.30;71.20
40808;DHT22;26523;52.504;13.498;2023-07-24T11:20:47;29.40;69.60
40808;DHT22;26523;52.504;13.498;2023-07-24T11:23:13;29.50;70.00
40808;DHT22;26523;52.504;13.498;2023-07-24T11:25:39;29.40;70.40
40808;DHT22;26523;52.504;13.498;2023-07-24T11:28:10;29.60;70.10
40808;DHT22;26523;52.504;13.498;2023-07-24T11:30:37;29.50;70.20
40808;DHT22;26523;52.504;13.498;2023-07-24T11:33:05;29.20;70.40
40808;DHT22;26523;52.504;13.498;2023-07-24T11:35:31;29.10;71.20
40808;DHT22;26523;52.504;13.498;2023-07-24T11:37:57;29.20;70.90
40808;DHT22;26523;52.504;13.498;2023-07-24T11:40:31;29.40;70.30
40808;DHT22;26523;52.504;13.498;2023-07-24T11:42:57;29.30;70.60
40808;DHT22;26523;52.504;13.498;2023-07-24T11:45:23;29.10;70.60
40808;DHT22;26523;52.504;13.498;2023-07-24T11:47:49;28.90;70.60
40808;DHT22;26523;52.504;13.498;2023-07-24T11:50:16;28.70;70.80
40808;DHT22;26523;52.504;13.498;2023-07-24T11:52:44;28.60;71.20
40808;DHT22;26523;52.504;13.498;2023-07-24T11:55:16;28.90;71.90
40808;DHT22;26523;52.504;13.498;2023-07-24T11:57:42;29.00;71.30
40808;DHT22;26523;52.504;13.498;2023-07-24T12:00:28;29.10;70.40
40808;DHT22;26523;52.504;13.498;2023-07-24T12:02:59;29.10;70.10
40808;DHT22;26523;52.504;13.498;2023-07-24T12:05:25;28.90;70.30
40808;DHT22;26523;52.504;13.498;2023-07-24T12:07:54;28.70;70.90
40808;DHT22;26523;52.504;13.498;2023-07-24T12:10:27;28.40;71.30
40808;DHT22;26523;52.504;13.498;2023-07-24T12:12:54;28.20;71.10
40808;DHT22;26523;52.504;13.498;2023-07-24T12:15:20;28.10;71.20
40808;DHT22;26523;52.504;13.498;2023-07-24T12:17:45;28.20;71.80
40808;DHT22;26523;52.504;13.498;2023-07-24T12:20:11;28.00;71.70
40808;DHT22;26523;52.504;13.498;2023-07-24T12:22:38;28.00;71.90
40808;DHT22;26523;52.504;13.498;2023-07-24T12:25:05;27.80;72.30
40808;DHT22;26523;52.504;13.498;2023-07-24T12:27:32;27.70;72.40
40808;DHT22;26523;52.504;13.498;2023-07-24T12:29:58;27.60;73.00
40808;DHT22;26523;52.504;13.498;2023-07-24T12:32:24;27.40;72.80
40808;DHT22;26523;52.504;13.498;2023-07-24T12:34:53;27.20;75.40
40808;DHT22;26523;52.504;13.498;2023-07-24T12:37:19;26.90;77.60
40808;DHT22;26523;52.504;13.498;2023-07-24T12:39:47;26.70;78.90
40808;DHT22;26523;52.504;13.498;2023-07-24T12:42:13;26.50;80.00
40808;DHT22;26523;52.504;13.498;2023-07-24T12:44:39;26.30;80.60
40808;DHT22;26523;52.504;13.498;2023-07-24T12:47:05;26.20;81.00
40808;DHT22;26523;52.504;13.498;2023-07-24T12:49:31;26.10;81.40
40808;DHT22;26523;52.504;13.498;2023-07-24T12:51:56;26.00;83.30
40808;DHT22;26523;52.504;13.498;2023-07-24T12:54:22;25.80;83.50
40808;DHT22;26523;52.504;13.498;2023-07-24T12:56:49;25.80;84.70
40808;DHT22;26523;52.504;13.498;2023-07-24T12:59:15;25.90;84.60
40808;DHT22;26523;52.504;13.498;2023-07-24T13:01:41;26.10;84.30
40808;DHT22;26523;52.504;13.498;2023-07-24T13:04:07;26.10;83.90
40808;DHT22;26523;52.504;13.498;2023-07-24T13:06:33;26.20;83.00
40808;DHT22;26523;52.504;13.498;2023-07-24T13:08:58;26.10;82.60
40808;DHT22;26523;52.504;13.498;2023-07-24T13:11:24;26.10;83.30
40808;DHT22;26523;52.504;13.498;2023-07-24T13:13:50;26.00;83.60
40808;DHT22;26523;52.504;13.498;2023-07-24T13:16:18;25.90;84.40
40808;DHT22;26523;52.504;13.498;2023-07-24T13:18:44;25.70;85.40
40808;DHT22;26523;52.504;13.498;2023-07-24T13:21:10;25.50;86.70
40808;DHT22;26523;52.504;13.498;2023-07-24T13:23:35;25.40;88.20
40808;DHT22;26523;52.504;13.498;2023-07-24T13:26:01;25.20;88.80
40808;DHT22;26523;52.504;13.498;2023-07-24T13:28:27;25.10;88.80
40808;DHT22;26523;52.504;13.498;2023-07-24T13:30:53;25.10;89.70
40808;DHT22;26523;52.504;13.498;2023-07-24T13:33:18;25.30;89.30
40808;DHT22;26523;52.504;13.498;2023-07-24T13:35:44;25.50;88.50
40808;DHT22;26523;52.504;13.498;2023-07-24T13:38:10;25.60;87.60
40808;DHT22;26523;52.504;13.498;2023-07-24T13:40:36;25.70;87.60
40808;DHT22;26523;52.504;13.498;2023-07-24T13:43:02;25.90;87.40
40808;DHT22;26523;52.504;13.498;2023-07-24T13:45:29;25.90;87.00
40808;DHT22;26523;52.504;13.498;2023-07-24T13:47:56;26.20;88.60
40808;DHT22;26523;52.504;13.498;2023-07-24T13:50:21;26.40;87.30
40808;DHT22;26523;52.504;13.498;2023-07-24T13:52:47;26.60;86.90
40808;DHT22;26523;52.504;13.498;2023-07-24T13:55:13;26.70;87.20
40808;DHT22;26523;52.504;13.498;2023-07-24T13:57:39;26.80;87.70
40808;DHT22;26523;52.504;13.498;2023-07-24T14:00:05;27.00;87.30
40808;DHT22;26523;52.504;13.498;2023-07-24T14:02:31;27.00;86.30
40808;DHT22;26523;52.504;13.498;2023-07-24T14:04:57;27.10;86.00
40808;DHT22;26523;52.504;13.498;2023-07-24T14:07:22;27.20;87.20
40808;DHT22;26523;52.504;13.498;2023-07-24T14:09:48;27.20;86.90
40808;DHT22;26523;52.504;13.498;2023-07-24T14:12:14;27.30;86.80
40808;DHT22;26523;52.504;13.498;2023-07-24T14:14:39;27.30;87.80
40808;DHT22;26523;52.504;13.498;2023-07-24T14:17:05;27.20;88.20
40808;DHT22;26523;52.504;13.498;2023-07-24T14:19:30;27.10;89.50
40808;DHT22;26523;52.504;13.498;2023-07-24T14:21:56;26.90;89.80
40808;DHT22;26523;52.504;13.498;2023-07-24T14:24:22;26.70;90.40
40808;DHT22;26523;52.504;13.498;2023-07-24T14:26:48;26.60;90.60
40808;DHT22;26523;52.504;13.498;2023-07-24T14:29:14;26.70;90.60
40808;DHT22;26523;52.504;13.498;2023-07-24T14:31:43;26.80;90.70
40808;DHT22;26523;52.504;13.498;2023-07-24T14:34:08;26.90;90.40
40808;DHT22;26523;52.504;13.498;2023-07-24T14:36:36;26.80;90.30
40808;DHT22;26523;52.504;13.498;2023-07-24T14:39:05;26.60;90.70
40808;DHT22;26523;52.504;13.498;2023-07-24T14:41:31;26.40;91.10
40808;DHT22;26523;52.504;13.498;2023-07-24T14:43:57;26.40;91.40
40808;DHT22;26523;52.504;13.498;2023-07-24T14:46:23;26.30;91.20
40808;DHT22;26523;52.504;13.498;2023-07-24T14:48:49;26.20;91.40
40808;DHT22;26523;52.504;13.498;2023-07-24T14:51:15;26.20;91.60
40808;DHT22;26523;52.504;13.498;2023-07-24T14:53:40;26.10;92.20
40808;DHT22;26523;52.504;13.498;2023-07-24T14:56:06;26.00;92.30
40808;DHT22;26523;52.504;13.498;2023-07-24T14:58:32;25.80;92.60
40808;DHT22;26523;52.504;13.498;2023-07-24T15:00:57;25.80;93.10
40808;DHT22;26523;52.504;13.498;2023-07-24T15:03:23;25.60;93.30
40808;DHT22;26523;52.504;13.498;2023-07-24T15:05:49;25.60;93.60
40808;DHT22;26523;52.504;13.498;2023-07-24T15:08:14;25.70;93.50
40808;DHT22;26523;52.504;13.498;2023-07-24T15:10:40;25.70;93.40
40808;DHT22;26523;52.504;13.498;2023-07-24T15:13:09;25.70;93.30
40808;DHT22;26523;52.504;13.498;2023-07-24T15:15:34;25.70;93.40
40808;DHT22;26523;52.504;13.498;2023-07-24T15:18:00;25.70;93.30
40808;DHT22;26523;52.504;13.498;2023-07-24T15:20:26;25.80;93.10
40808;DHT22;26523;52.504;13.498;2023-07-24T15:22:51;25.80;93.00